CheckWX is a tool to help pilots better visualize weather data.  It is not intended as a substitute for an official pre-flight weather briefing.

14:56:35 UTC

EGLL METAR
London Heathrow Airport
London, United Kingdom
Current

37 mins ago

EGLL 211420Z AUTO 24016KT 9999 BKN033 11/04 Q1021
Observed
Feb-21 @ 14:20 UTC
Wind
  • 240° at 16 KTS
Visibility
10,000+ meters
Flight Rules
VFR
Cloud Levels
  • Broken at 3,300' AGL
Temperature
11°C / 52°F
Dewpoint
C / 39°F
Humidity
62%
Altimeter
30.15" Hg
Pressure
1020.92 hPa
Previous

1 hour ago

EGLL 211350Z AUTO 24018KT 9999 BKN032 BKN040 11/04 Q1022 NOSIG
Observed
Feb-21 @ 13:50 UTC
Wind
  • 240° at 18 KTS
Visibility
10,000+ meters
Flight Rules
VFR
Cloud Levels
  • Broken at 3,200' AGL
  • Broken at 4,000' AGL
Temperature
11°C / 52°F
Dewpoint
C / 39°F
Humidity
62%
Altimeter
30.18" Hg
Pressure
1021.92 hPa
Previous

2 hours ago

EGLL 211320Z AUTO 25018KT 9999 BKN032 10/04 Q1022 NOSIG
Observed
Feb-21 @ 13:20 UTC
Wind
  • 250° at 18 KTS
Visibility
10,000+ meters
Flight Rules
VFR
Cloud Levels
  • Broken at 3,200' AGL
Temperature
10°C / 50°F
Dewpoint
C / 39°F
Humidity
67%
Altimeter
30.18" Hg
Pressure
1021.92 hPa